Eleven Mile Corner, Arizona
Current Conditions -  °F | °C
As of 2:35 PM on Friday 24 Oct 2014 (Local Time) from KCGZ Reporting Station
Clear Clear  
Wind Chill: 91°   Ceiling: Unl
Heat Index: 91°   Visibility: 10mi
Dew Point: 46°   Wind: 0mph
Humidity: 21%   Direction: NA
Pressure: 29.99"   Gusts: NA
Location:  32.731°N, 111.896°W
Report Text: KCGZ 242135Z AUTO 00000KT 10SM CLR 33/08 A2999 RMK AO1
Loading
Personal Weather Stations






























Interactive Weather Map
Tropical Storm Tracking
New forecast layout! Learn more

10-Day Weather Forecast

Advertisements
Track Severe Weather on mobile